sensor_id;sensor_type;location;lat;lon;timestamp;P1;durP1;ratioP1;P2;durP2;ratioP2
30147;SDS011;16960;49.404;8.248;2023-02-27T00:01:11;1.20;;;0.80;;
30147;SDS011;16960;49.404;8.248;2023-02-27T00:03:38;2.63;;;0.70;;
30147;SDS011;16960;49.404;8.248;2023-02-27T00:06:05;1.33;;;1.00;;
30147;SDS011;16960;49.404;8.248;2023-02-27T00:08:33;1.27;;;0.50;;
30147;SDS011;16960;49.404;8.248;2023-02-27T00:11:00;1.70;;;0.93;;
30147;SDS011;16960;49.404;8.248;2023-02-27T00:13:27;1.70;;;0.80;;
30147;SDS011;16960;49.404;8.248;2023-02-27T00:15:54;2.53;;;0.90;;
30147;SDS011;16960;49.404;8.248;2023-02-27T00:18:21;3.30;;;1.00;;
30147;SDS011;16960;49.404;8.248;2023-02-27T00:20:48;1.57;;;0.90;;
30147;SDS011;16960;49.404;8.248;2023-02-27T00:23:15;6.53;;;1.10;;
30147;SDS011;16960;49.404;8.248;2023-02-27T00:25:43;2.00;;;1.40;;
30147;SDS011;16960;49.404;8.248;2023-02-27T00:28:10;1.93;;;0.70;;
30147;SDS011;16960;49.404;8.248;2023-02-27T00:30:37;1.10;;;1.00;;
30147;SDS011;16960;49.404;8.248;2023-02-27T00:33:04;5.60;;;1.00;;
30147;SDS011;16960;49.404;8.248;2023-02-27T00:35:31;0.97;;;0.90;;
30147;SDS011;16960;49.404;8.248;2023-02-27T00:37:58;1.33;;;0.80;;
30147;SDS011;16960;49.404;8.248;2023-02-27T00:40:24;1.10;;;0.90;;
30147;SDS011;16960;49.404;8.248;2023-02-27T00:42:53;1.20;;;0.97;;
30147;SDS011;16960;49.404;8.248;2023-02-27T00:45:20;0.97;;;0.87;;
30147;SDS011;16960;49.404;8.248;2023-02-27T00:47:47;1.13;;;0.90;;
30147;SDS011;16960;49.404;8.248;2023-02-27T00:50:14;1.03;;;0.90;;
30147;SDS011;16960;49.404;8.248;2023-02-27T00:52:41;1.17;;;0.87;;
30147;SDS011;16960;49.404;8.248;2023-02-27T00:55:08;1.13;;;0.90;;
30147;SDS011;16960;49.404;8.248;2023-02-27T00:57:35;3.30;;;1.30;;
30147;SDS011;16960;49.404;8.248;2023-02-27T01:00:05;1.17;;;0.90;;
30147;SDS011;16960;49.404;8.248;2023-02-27T01:02:33;1.50;;;1.17;;
30147;SDS011;16960;49.404;8.248;2023-02-27T01:05:00;1.00;;;0.90;;
30147;SDS011;16960;49.404;8.248;2023-02-27T01:07:27;1.53;;;1.30;;
30147;SDS011;16960;49.404;8.248;2023-02-27T01:09:54;1.60;;;1.10;;
30147;SDS011;16960;49.404;8.248;2023-02-27T01:12:21;1.53;;;1.23;;
30147;SDS011;16960;49.404;8.248;2023-02-27T01:14:48;1.40;;;1.23;;
30147;SDS011;16960;49.404;8.248;2023-02-27T01:17:16;2.23;;;1.17;;
30147;SDS011;16960;49.404;8.248;2023-02-27T01:19:43;1.60;;;1.40;;
30147;SDS011;16960;49.404;8.248;2023-02-27T01:22:10;1.20;;;1.10;;
30147;SDS011;16960;49.404;8.248;2023-02-27T01:24:37;2.07;;;1.40;;
30147;SDS011;16960;49.404;8.248;2023-02-27T01:27:04;1.70;;;1.40;;
30147;SDS011;16960;49.404;8.248;2023-02-27T01:29:30;1.20;;;1.10;;
30147;SDS011;16960;49.404;8.248;2023-02-27T01:31:57;1.37;;;1.27;;
30147;SDS011;16960;49.404;8.248;2023-02-27T01:34:26;1.57;;;1.30;;
30147;SDS011;16960;49.404;8.248;2023-02-27T01:36:53;1.53;;;1.20;;
30147;SDS011;16960;49.404;8.248;2023-02-27T01:39:20;1.40;;;1.30;;
30147;SDS011;16960;49.404;8.248;2023-02-27T01:41:47;2.63;;;1.13;;
30147;SDS011;16960;49.404;8.248;2023-02-27T01:44:13;3.70;;;1.60;;
30147;SDS011;16960;49.404;8.248;2023-02-27T01:46:41;1.97;;;1.70;;
30147;SDS011;16960;49.404;8.248;2023-02-27T01:49:08;1.40;;;1.30;;
30147;SDS011;16960;49.404;8.248;2023-02-27T01:51:41;1.50;;;1.40;;
30147;SDS011;16960;49.404;8.248;2023-02-27T01:54:11;1.53;;;1.33;;
30147;SDS011;16960;49.404;8.248;2023-02-27T01:56:42;1.87;;;1.60;;
30147;SDS011;16960;49.404;8.248;2023-02-27T01:59:09;2.50;;;1.17;;
30147;SDS011;16960;49.404;8.248;2023-02-27T02:01:37;1.67;;;1.10;;
30147;SDS011;16960;49.404;8.248;2023-02-27T02:04:05;1.60;;;1.50;;
30147;SDS011;16960;49.404;8.248;2023-02-27T02:06:37;2.07;;;1.40;;
30147;SDS011;16960;49.404;8.248;2023-02-27T02:09:10;3.00;;;1.60;;
30147;SDS011;16960;49.404;8.248;2023-02-27T02:11:39;1.53;;;1.30;;
30147;SDS011;16960;49.404;8.248;2023-02-27T02:14:07;1.60;;;1.40;;
30147;SDS011;16960;49.404;8.248;2023-02-27T02:16:44;1.83;;;1.37;;
30147;SDS011;16960;49.404;8.248;2023-02-27T02:19:30;2.53;;;1.63;;
30147;SDS011;16960;49.404;8.248;2023-02-27T02:22:31;1.60;;;1.50;;
30147;SDS011;16960;49.404;8.248;2023-02-27T02:28:25;1.83;;;1.57;;
30147;SDS011;16960;49.404;8.248;2023-02-27T02:40:22;1.40;;;1.20;;
30147;SDS011;16960;49.404;8.248;2023-02-27T02:43:01;1.60;;;1.50;;
30147;SDS011;16960;49.404;8.248;2023-02-27T02:45:36;1.90;;;1.50;;
30147;SDS011;16960;49.404;8.248;2023-02-27T02:48:14;2.23;;;1.67;;
30147;SDS011;16960;49.404;8.248;2023-02-27T02:50:47;2.43;;;1.63;;
30147;SDS011;16960;49.404;8.248;2023-02-27T02:53:22;1.20;;;1.10;;
30147;SDS011;16960;49.404;8.248;2023-02-27T02:55:58;2.07;;;1.73;;
30147;SDS011;16960;49.404;8.248;2023-02-27T02:58:31;2.23;;;1.83;;
30147;SDS011;16960;49.404;8.248;2023-02-27T03:01:04;1.77;;;1.50;;
30147;SDS011;16960;49.404;8.248;2023-02-27T03:03:38;1.47;;;1.30;;
30147;SDS011;16960;49.404;8.248;2023-02-27T03:06:10;1.53;;;1.43;;
30147;SDS011;16960;49.404;8.248;2023-02-27T03:08:42;1.93;;;1.80;;
30147;SDS011;16960;49.404;8.248;2023-02-27T03:11:17;2.70;;;1.60;;
30147;SDS011;16960;49.404;8.248;2023-02-27T03:13:47;1.53;;;1.40;;
30147;SDS011;16960;49.404;8.248;2023-02-27T03:16:19;2.30;;;1.70;;
30147;SDS011;16960;49.404;8.248;2023-02-27T03:18:50;1.80;;;1.43;;
30147;SDS011;16960;49.404;8.248;2023-02-27T03:21:23;2.77;;;2.30;;
30147;SDS011;16960;49.404;8.248;2023-02-27T03:23:55;1.70;;;1.50;;
30147;SDS011;16960;49.404;8.248;2023-02-27T03:26:28;2.23;;;1.87;;
30147;SDS011;16960;49.404;8.248;2023-02-27T03:28:59;1.47;;;1.37;;
30147;SDS011;16960;49.404;8.248;2023-02-27T03:31:30;2.80;;;1.53;;
30147;SDS011;16960;49.404;8.248;2023-02-27T03:34:03;2.50;;;2.00;;
30147;SDS011;16960;49.404;8.248;2023-02-27T03:36:37;2.30;;;1.90;;
30147;SDS011;16960;49.404;8.248;2023-02-27T03:39:10;2.10;;;1.70;;
30147;SDS011;16960;49.404;8.248;2023-02-27T03:41:50;1.70;;;1.47;;
30147;SDS011;16960;49.404;8.248;2023-02-27T03:44:23;1.73;;;1.63;;
30147;SDS011;16960;49.404;8.248;2023-02-27T03:46:53;1.90;;;1.80;;
30147;SDS011;16960;49.404;8.248;2023-02-27T03:49:20;1.80;;;1.60;;
30147;SDS011;16960;49.404;8.248;2023-02-27T03:51:48;2.20;;;1.93;;
30147;SDS011;16960;49.404;8.248;2023-02-27T03:54:15;2.03;;;1.80;;
30147;SDS011;16960;49.404;8.248;2023-02-27T03:56:48;2.50;;;1.67;;
30147;SDS011;16960;49.404;8.248;2023-02-27T03:59:20;2.10;;;1.90;;
30147;SDS011;16960;49.404;8.248;2023-02-27T04:01:49;2.17;;;1.67;;
30147;SDS011;16960;49.404;8.248;2023-02-27T04:04:17;1.93;;;1.50;;
30147;SDS011;16960;49.404;8.248;2023-02-27T04:06:45;2.03;;;1.83;;
30147;SDS011;16960;49.404;8.248;2023-02-27T04:10:03;1.70;;;1.50;;
30147;SDS011;16960;49.404;8.248;2023-02-27T04:12:55;2.40;;;1.60;;
30147;SDS011;16960;49.404;8.248;2023-02-27T04:15:50;2.50;;;1.60;;
30147;SDS011;16960;49.404;8.248;2023-02-27T04:18:29;3.07;;;1.50;;
30147;SDS011;16960;49.404;8.248;2023-02-27T04:21:09;1.90;;;1.63;;
30147;SDS011;16960;49.404;8.248;2023-02-27T04:23:44;1.50;;;1.40;;
30147;SDS011;16960;49.404;8.248;2023-02-27T04:26:20;1.63;;;1.40;;
30147;SDS011;16960;49.404;8.248;2023-02-27T04:28:56;2.27;;;1.93;;
30147;SDS011;16960;49.404;8.248;2023-02-27T04:31:30;2.20;;;1.80;;
30147;SDS011;16960;49.404;8.248;2023-02-27T04:34:04;1.80;;;1.70;;
30147;SDS011;16960;49.404;8.248;2023-02-27T04:36:38;2.10;;;1.80;;
30147;SDS011;16960;49.404;8.248;2023-02-27T04:39:08;1.93;;;1.57;;
30147;SDS011;16960;49.404;8.248;2023-02-27T04:41:42;3.23;;;1.60;;
30147;SDS011;16960;49.404;8.248;2023-02-27T04:44:15;1.73;;;1.37;;
30147;SDS011;16960;49.404;8.248;2023-02-27T04:46:44;2.00;;;1.80;;
30147;SDS011;16960;49.404;8.248;2023-02-27T04:49:13;1.63;;;1.50;;
30147;SDS011;16960;49.404;8.248;2023-02-27T04:51:46;1.30;;;1.20;;
30147;SDS011;16960;49.404;8.248;2023-02-27T04:54:18;1.70;;;1.50;;
30147;SDS011;16960;49.404;8.248;2023-02-27T04:56:52;1.70;;;1.47;;
30147;SDS011;16960;49.404;8.248;2023-02-27T04:59:28;1.63;;;1.43;;
30147;SDS011;16960;49.404;8.248;2023-02-27T05:02:00;1.87;;;1.43;;
30147;SDS011;16960;49.404;8.248;2023-02-27T05:04:31;2.00;;;1.50;;
30147;SDS011;16960;49.404;8.248;2023-02-27T05:07:00;2.20;;;1.37;;
30147;SDS011;16960;49.404;8.248;2023-02-27T05:09:31;2.00;;;1.60;;
30147;SDS011;16960;49.404;8.248;2023-02-27T05:12:04;1.97;;;1.40;;
30147;SDS011;16960;49.404;8.248;2023-02-27T05:14:42;1.77;;;1.60;;
30147;SDS011;16960;49.404;8.248;2023-02-27T05:17:16;1.93;;;1.73;;
30147;SDS011;16960;49.404;8.248;2023-02-27T05:19:46;1.30;;;1.13;;
30147;SDS011;16960;49.404;8.248;2023-02-27T05:22:17;1.50;;;1.40;;
30147;SDS011;16960;49.404;8.248;2023-02-27T05:24:51;2.30;;;1.70;;
30147;SDS011;16960;49.404;8.248;2023-02-27T05:27:22;2.03;;;1.60;;
30147;SDS011;16960;49.404;8.248;2023-02-27T05:29:57;1.87;;;1.50;;
30147;SDS011;16960;49.404;8.248;2023-02-27T05:32:30;1.70;;;1.60;;
30147;SDS011;16960;49.404;8.248;2023-02-27T05:35:07;1.70;;;1.60;;
30147;SDS011;16960;49.404;8.248;2023-02-27T05:37:43;1.30;;;1.20;;
30147;SDS011;16960;49.404;8.248;2023-02-27T05:40:12;1.50;;;1.40;;
30147;SDS011;16960;49.404;8.248;2023-02-27T05:42:46;1.50;;;1.40;;
30147;SDS011;16960;49.404;8.248;2023-02-27T05:45:20;1.90;;;1.57;;
30147;SDS011;16960;49.404;8.248;2023-02-27T05:47:51;1.43;;;1.30;;
30147;SDS011;16960;49.404;8.248;2023-02-27T05:50:24;1.50;;;1.40;;
30147;SDS011;16960;49.404;8.248;2023-02-27T05:52:56;1.37;;;1.27;;
30147;SDS011;16960;49.404;8.248;2023-02-27T05:55:26;1.50;;;1.40;;
30147;SDS011;16960;49.404;8.248;2023-02-27T05:57:58;1.50;;;1.40;;
30147;SDS011;16960;49.404;8.248;2023-02-27T06:00:32;1.63;;;1.40;;
30147;SDS011;16960;49.404;8.248;2023-02-27T06:03:02;1.67;;;1.50;;
30147;SDS011;16960;49.404;8.248;2023-02-27T06:05:29;1.53;;;1.30;;
30147;SDS011;16960;49.404;8.248;2023-02-27T06:07:56;2.00;;;1.80;;
30147;SDS011;16960;49.404;8.248;2023-02-27T06:10:24;1.57;;;1.33;;
30147;SDS011;16960;49.404;8.248;2023-02-27T06:12:51;1.30;;;1.20;;
30147;SDS011;16960;49.404;8.248;2023-02-27T06:15:18;1.27;;;1.17;;
30147;SDS011;16960;49.404;8.248;2023-02-27T06:17:48;1.23;;;1.13;;
30147;SDS011;16960;49.404;8.248;2023-02-27T06:20:15;1.53;;;1.43;;
30147;SDS011;16960;49.404;8.248;2023-02-27T06:22:42;1.60;;;1.40;;
30147;SDS011;16960;49.404;8.248;2023-02-27T06:25:10;1.10;;;0.93;;
30147;SDS011;16960;49.404;8.248;2023-02-27T06:27:37;2.10;;;1.27;;
30147;SDS011;16960;49.404;8.248;2023-02-27T06:30:05;1.90;;;1.23;;
30147;SDS011;16960;49.404;8.248;2023-02-27T06:32:32;1.90;;;1.53;;
30147;SDS011;16960;49.404;8.248;2023-02-27T06:35:00;1.67;;;1.57;;
30147;SDS011;16960;49.404;8.248;2023-02-27T06:37:27;1.43;;;1.33;;
30147;SDS011;16960;49.404;8.248;2023-02-27T06:39:54;2.70;;;1.20;;
30147;SDS011;16960;49.404;8.248;2023-02-27T06:42:22;1.80;;;1.43;;
30147;SDS011;16960;49.404;8.248;2023-02-27T06:44:49;5.33;;;1.30;;
30147;SDS011;16960;49.404;8.248;2023-02-27T06:47:16;2.40;;;1.70;;
30147;SDS011;16960;49.404;8.248;2023-02-27T06:49:43;2.53;;;1.70;;
30147;SDS011;16960;49.404;8.248;2023-02-27T06:52:11;2.50;;;1.73;;
30147;SDS011;16960;49.404;8.248;2023-02-27T06:54:38;1.90;;;1.53;;
30147;SDS011;16960;49.404;8.248;2023-02-27T06:57:05;1.80;;;1.63;;
30147;SDS011;16960;49.404;8.248;2023-02-27T06:59:32;3.67;;;1.57;;
30147;SDS011;16960;49.404;8.248;2023-02-27T07:01:59;2.50;;;1.17;;
30147;SDS011;16960;49.404;8.248;2023-02-27T07:04:26;2.67;;;1.87;;
30147;SDS011;16960;49.404;8.248;2023-02-27T07:06:53;2.30;;;1.70;;
30147;SDS011;16960;49.404;8.248;2023-02-27T07:09:21;2.20;;;1.43;;
30147;SDS011;16960;49.404;8.248;2023-02-27T07:11:48;1.70;;;1.47;;
30147;SDS011;16960;49.404;8.248;2023-02-27T07:14:15;3.30;;;2.00;;
30147;SDS011;16960;49.404;8.248;2023-02-27T07:16:42;4.23;;;1.30;;
30147;SDS011;16960;49.404;8.248;2023-02-27T07:19:11;1.77;;;1.37;;
30147;SDS011;16960;49.404;8.248;2023-02-27T07:21:38;1.87;;;1.67;;
30147;SDS011;16960;49.404;8.248;2023-02-27T07:24:05;1.50;;;1.40;;
30147;SDS011;16960;49.404;8.248;2023-02-27T07:26:34;2.23;;;1.50;;
30147;SDS011;16960;49.404;8.248;2023-02-27T07:29:01;1.70;;;1.30;;
30147;SDS011;16960;49.404;8.248;2023-02-27T07:31:28;1.90;;;1.23;;
30147;SDS011;16960;49.404;8.248;2023-02-27T07:33:55;1.57;;;1.40;;
30147;SDS011;16960;49.404;8.248;2023-02-27T07:36:22;1.30;;;1.20;;
30147;SDS011;16960;49.404;8.248;2023-02-27T07:38:49;2.43;;;1.20;;
30147;SDS011;16960;49.404;8.248;2023-02-27T07:41:16;2.20;;;1.40;;
30147;SDS011;16960;49.404;8.248;2023-02-27T07:43:45;1.80;;;1.23;;
30147;SDS011;16960;49.404;8.248;2023-02-27T07:46:12;2.00;;;1.40;;
30147;SDS011;16960;49.404;8.248;2023-02-27T07:48:39;4.83;;;1.70;;
30147;SDS011;16960;49.404;8.248;2023-02-27T07:51:06;2.03;;;1.57;;
30147;SDS011;16960;49.404;8.248;2023-02-27T07:53:33;2.97;;;1.77;;
30147;SDS011;16960;49.404;8.248;2023-02-27T07:56:00;1.47;;;1.00;;
30147;SDS011;16960;49.404;8.248;2023-02-27T07:58:27;2.47;;;1.63;;
30147;SDS011;16960;49.404;8.248;2023-02-27T08:00:55;2.20;;;1.37;;
30147;SDS011;16960;49.404;8.248;2023-02-27T08:03:22;2.53;;;1.50;;
30147;SDS011;16960;49.404;8.248;2023-02-27T08:05:49;2.87;;;1.43;;
30147;SDS011;16960;49.404;8.248;2023-02-27T08:08:16;2.13;;;1.27;;
30147;SDS011;16960;49.404;8.248;2023-02-27T08:10:43;1.83;;;1.67;;
30147;SDS011;16960;49.404;8.248;2023-02-27T08:13:10;2.17;;;1.10;;
30147;SDS011;16960;49.404;8.248;2023-02-27T08:15:38;3.80;;;1.40;;
30147;SDS011;16960;49.404;8.248;2023-02-27T08:18:06;1.23;;;0.90;;
30147;SDS011;16960;49.404;8.248;2023-02-27T08:20:33;1.70;;;1.40;;
30147;SDS011;16960;49.404;8.248;2023-02-27T08:23:01;1.73;;;1.20;;
30147;SDS011;16960;49.404;8.248;2023-02-27T08:25:28;1.87;;;1.43;;
30147;SDS011;16960;49.404;8.248;2023-02-27T08:27:55;2.27;;;1.07;;
30147;SDS011;16960;49.404;8.248;2023-02-27T08:30:22;1.70;;;1.40;;
30147;SDS011;16960;49.404;8.248;2023-02-27T08:32:49;1.30;;;1.07;;
30147;SDS011;16960;49.404;8.248;2023-02-27T08:35:17;1.77;;;1.20;;
30147;SDS011;16960;49.404;8.248;2023-02-27T08:37:45;1.83;;;1.40;;
30147;SDS011;16960;49.404;8.248;2023-02-27T08:40:13;1.37;;;1.00;;
30147;SDS011;16960;49.404;8.248;2023-02-27T08:42:40;1.30;;;1.10;;
30147;SDS011;16960;49.404;8.248;2023-02-27T08:45:07;1.10;;;1.00;;
30147;SDS011;16960;49.404;8.248;2023-02-27T08:47:35;2.60;;;1.20;;
30147;SDS011;16960;49.404;8.248;2023-02-27T08:50:02;1.90;;;1.40;;
30147;SDS011;16960;49.404;8.248;2023-02-27T08:52:32;1.97;;;0.90;;
30147;SDS011;16960;49.404;8.248;2023-02-27T08:54:59;2.27;;;1.00;;
30147;SDS011;16960;49.404;8.248;2023-02-27T08:57:26;1.63;;;1.40;;
30147;SDS011;16960;49.404;8.248;2023-02-27T08:59:52;2.00;;;1.30;;
30147;SDS011;16960;49.404;8.248;2023-02-27T09:02:19;3.17;;;1.33;;
30147;SDS011;16960;49.404;8.248;2023-02-27T09:04:47;1.20;;;1.10;;
30147;SDS011;16960;49.404;8.248;2023-02-27T09:07:15;3.70;;;1.37;;
30147;SDS011;16960;49.404;8.248;2023-02-27T09:09:44;1.03;;;0.93;;
30147;SDS011;16960;49.404;8.248;2023-02-27T09:12:11;1.40;;;1.10;;
30147;SDS011;16960;49.404;8.248;2023-02-27T09:14:38;1.53;;;1.43;;
30147;SDS011;16960;49.404;8.248;2023-02-27T09:17:05;1.63;;;1.20;;
30147;SDS011;16960;49.404;8.248;2023-02-27T09:19:32;0.80;;;0.70;;
30147;SDS011;16960;49.404;8.248;2023-02-27T09:21:59;1.00;;;0.90;;
30147;SDS011;16960;49.404;8.248;2023-02-27T09:24:26;0.90;;;0.80;;
30147;SDS011;16960;49.404;8.248;2023-02-27T09:26:54;1.77;;;1.40;;
30147;SDS011;16960;49.404;8.248;2023-02-27T09:29:21;1.10;;;1.00;;
30147;SDS011;16960;49.404;8.248;2023-02-27T09:31:49;2.23;;;1.30;;
30147;SDS011;16960;49.404;8.248;2023-02-27T09:34:16;2.00;;;0.90;;
30147;SDS011;16960;49.404;8.248;2023-02-27T09:36:44;1.43;;;1.00;;
30147;SDS011;16960;49.404;8.248;2023-02-27T09:39:11;1.50;;;1.10;;
30147;SDS011;16960;49.404;8.248;2023-02-27T09:41:41;1.70;;;1.27;;
30147;SDS011;16960;49.404;8.248;2023-02-27T09:44:25;1.00;;;0.93;;
30147;SDS011;16960;49.404;8.248;2023-02-27T09:46:57;1.87;;;1.10;;
30147;SDS011;16960;49.404;8.248;2023-02-27T09:49:25;1.27;;;1.10;;
30147;SDS011;16960;49.404;8.248;2023-02-27T09:51:57;1.10;;;0.90;;
30147;SDS011;16960;49.404;8.248;2023-02-27T09:54:24;0.80;;;0.80;;
30147;SDS011;16960;49.404;8.248;2023-02-27T09:56:59;1.13;;;0.70;;
30147;SDS011;16960;49.404;8.248;2023-02-27T09:59:33;3.83;;;1.00;;
30147;SDS011;16960;49.404;8.248;2023-02-27T10:02:05;0.90;;;0.80;;
30147;SDS011;16960;49.404;8.248;2023-02-27T10:04:47;1.10;;;0.80;;
30147;SDS011;16960;49.404;8.248;2023-02-27T10:07:20;1.83;;;1.33;;
30147;SDS011;16960;49.404;8.248;2023-02-27T10:09:54;1.20;;;0.90;;
30147;SDS011;16960;49.404;8.248;2023-02-27T10:12:40;1.57;;;1.10;;
30147;SDS011;16960;49.404;8.248;2023-02-27T10:15:16;2.37;;;0.97;;
30147;SDS011;16960;49.404;8.248;2023-02-27T10:17:50;1.70;;;0.73;;
30147;SDS011;16960;49.404;8.248;2023-02-27T10:20:21;1.23;;;0.73;;
30147;SDS011;16960;49.404;8.248;2023-02-27T10:22:51;1.77;;;0.90;;
30147;SDS011;16960;49.404;8.248;2023-02-27T10:25:19;1.30;;;0.90;;
30147;SDS011;16960;49.404;8.248;2023-02-27T10:27:47;1.10;;;0.80;;
30147;SDS011;16960;49.404;8.248;2023-02-27T10:30:19;4.23;;;0.90;;
30147;SDS011;16960;49.404;8.248;2023-02-27T10:32:49;3.67;;;0.80;;
30147;SDS011;16960;49.404;8.248;2023-02-27T10:35:22;1.80;;;0.80;;
30147;SDS011;16960;49.404;8.248;2023-02-27T10:37:54;1.27;;;0.90;;
30147;SDS011;16960;49.404;8.248;2023-02-27T10:40:25;1.17;;;0.80;;
30147;SDS011;16960;49.404;8.248;2023-02-27T10:42:54;1.60;;;0.90;;
30147;SDS011;16960;49.404;8.248;2023-02-27T10:45:25;1.07;;;0.80;;
30147;SDS011;16960;49.404;8.248;2023-02-27T10:47:52;1.90;;;0.80;;
30147;SDS011;16960;49.404;8.248;2023-02-27T10:50:20;1.13;;;0.90;;
30147;SDS011;16960;49.404;8.248;2023-02-27T10:52:50;0.87;;;0.70;;
30147;SDS011;16960;49.404;8.248;2023-02-27T10:55:21;1.93;;;0.70;;
30147;SDS011;16960;49.404;8.248;2023-02-27T10:57:51;1.00;;;0.80;;
30147;SDS011;16960;49.404;8.248;2023-02-27T11:00:27;2.30;;;0.80;;
30147;SDS011;16960;49.404;8.248;2023-02-27T11:03:05;0.93;;;0.73;;
30147;SDS011;16960;49.404;8.248;2023-02-27T11:05:33;1.20;;;0.87;;
30147;SDS011;16960;49.404;8.248;2023-02-27T11:08:12;0.80;;;0.80;;
30147;SDS011;16960;49.404;8.248;2023-02-27T11:10:52;1.30;;;0.57;;
30147;SDS011;16960;49.404;8.248;2023-02-27T11:13:22;1.93;;;0.80;;
30147;SDS011;16960;49.404;8.248;2023-02-27T11:18:35;1.07;;;0.90;;
30147;SDS011;16960;49.404;8.248;2023-02-27T11:23:56;1.13;;;0.83;;
30147;SDS011;16960;49.404;8.248;2023-02-27T11:26:26;0.80;;;0.60;;
30147;SDS011;16960;49.404;8.248;2023-02-27T11:29:05;1.10;;;1.00;;
30147;SDS011;16960;49.404;8.248;2023-02-27T11:31:45;1.20;;;0.93;;
30147;SDS011;16960;49.404;8.248;2023-02-27T11:34:18;1.90;;;0.97;;
30147;SDS011;16960;49.404;8.248;2023-02-27T11:36:49;0.77;;;0.63;;
30147;SDS011;16960;49.404;8.248;2023-02-27T11:39:21;0.70;;;0.57;;
30147;SDS011;16960;49.404;8.248;2023-02-27T11:41:51;1.30;;;1.00;;
30147;SDS011;16960;49.404;8.248;2023-02-27T11:44:20;1.23;;;0.83;;
30147;SDS011;16960;49.404;8.248;2023-02-27T11:46:51;0.70;;;0.70;;
30147;SDS011;16960;49.404;8.248;2023-02-27T11:49:42;0.83;;;0.70;;
30147;SDS011;16960;49.404;8.248;2023-02-27T11:52:31;1.80;;;0.70;;
30147;SDS011;16960;49.404;8.248;2023-02-27T11:55:04;1.40;;;0.70;;
30147;SDS011;16960;49.404;8.248;2023-02-27T11:57:36;0.60;;;0.60;;
30147;SDS011;16960;49.404;8.248;2023-02-27T12:00:06;0.70;;;0.70;;
30147;SDS011;16960;49.404;8.248;2023-02-27T12:02:46;2.03;;;0.70;;
30147;SDS011;16960;49.404;8.248;2023-02-27T12:05:19;1.40;;;0.77;;
30147;SDS011;16960;49.404;8.248;2023-02-27T12:07:50;2.83;;;0.70;;
30147;SDS011;16960;49.404;8.248;2023-02-27T12:10:21;1.37;;;0.70;;
30147;SDS011;16960;49.404;8.248;2023-02-27T12:12:51;0.60;;;0.50;;
30147;SDS011;16960;49.404;8.248;2023-02-27T12:15:26;1.20;;;0.83;;
30147;SDS011;16960;49.404;8.248;2023-02-27T12:18:02;1.27;;;0.77;;
30147;SDS011;16960;49.404;8.248;2023-02-27T12:20:37;0.70;;;0.60;;
30147;SDS011;16960;49.404;8.248;2023-02-27T12:23:14;1.20;;;0.73;;
30147;SDS011;16960;49.404;8.248;2023-02-27T12:25:45;0.83;;;0.73;;
30147;SDS011;16960;49.404;8.248;2023-02-27T12:28:19;1.00;;;0.60;;
30147;SDS011;16960;49.404;8.248;2023-02-27T12:31:07;1.77;;;1.03;;
30147;SDS011;16960;49.404;8.248;2023-02-27T12:34:18;1.30;;;0.90;;
30147;SDS011;16960;49.404;8.248;2023-02-27T12:36:51;0.87;;;0.60;;
30147;SDS011;16960;49.404;8.248;2023-02-27T12:39:19;2.07;;;0.70;;
30147;SDS011;16960;49.404;8.248;2023-02-27T12:42:01;0.77;;;0.50;;
30147;SDS011;16960;49.404;8.248;2023-02-27T12:44:57;0.67;;;0.50;;
30147;SDS011;16960;49.404;8.248;2023-02-27T12:47:47;0.83;;;0.50;;
30147;SDS011;16960;49.404;8.248;2023-02-27T12:50:37;1.00;;;0.70;;
30147;SDS011;16960;49.404;8.248;2023-02-27T12:53:15;1.30;;;0.73;;
30147;SDS011;16960;49.404;8.248;2023-02-27T12:56:01;0.77;;;0.60;;
30147;SDS011;16960;49.404;8.248;2023-02-27T12:58:36;1.63;;;0.63;;
30147;SDS011;16960;49.404;8.248;2023-02-27T13:01:12;0.90;;;0.60;;
30147;SDS011;16960;49.404;8.248;2023-02-27T13:03:47;1.57;;;0.70;;
30147;SDS011;16960;49.404;8.248;2023-02-27T13:06:24;0.80;;;0.60;;
30147;SDS011;16960;49.404;8.248;2023-02-27T13:11:56;2.00;;;0.63;;
30147;SDS011;16960;49.404;8.248;2023-02-27T13:14:36;0.60;;;0.50;;
30147;SDS011;16960;49.404;8.248;2023-02-27T13:17:10;1.30;;;0.70;;
30147;SDS011;16960;49.404;8.248;2023-02-27T13:19:44;0.80;;;0.60;;
30147;SDS011;16960;49.404;8.248;2023-02-27T13:22:18;1.50;;;0.70;;
30147;SDS011;16960;49.404;8.248;2023-02-27T13:24:54;0.90;;;0.53;;
30147;SDS011;16960;49.404;8.248;2023-02-27T13:27:25;0.60;;;0.50;;
30147;SDS011;16960;49.404;8.248;2023-02-27T13:30:04;1.10;;;0.53;;
30147;SDS011;16960;49.404;8.248;2023-02-27T13:32:39;1.20;;;0.90;;
30147;SDS011;16960;49.404;8.248;2023-02-27T13:35:16;0.90;;;0.70;;
30147;SDS011;16960;49.404;8.248;2023-02-27T13:37:51;0.80;;;0.60;;
30147;SDS011;16960;49.404;8.248;2023-02-27T13:40:33;1.50;;;1.00;;
30147;SDS011;16960;49.404;8.248;2023-02-27T13:43:02;1.00;;;0.57;;
30147;SDS011;16960;49.404;8.248;2023-02-27T13:45:54;1.03;;;0.70;;
30147;SDS011;16960;49.404;8.248;2023-02-27T13:48:39;0.80;;;0.50;;
30147;SDS011;16960;49.404;8.248;2023-02-27T13:54:33;0.90;;;0.63;;
30147;SDS011;16960;49.404;8.248;2023-02-27T13:57:19;0.87;;;0.73;;
30147;SDS011;16960;49.404;8.248;2023-02-27T13:59:54;1.30;;;0.70;;
30147;SDS011;16960;49.404;8.248;2023-02-27T14:05:12;0.70;;;0.70;;
30147;SDS011;16960;49.404;8.248;2023-02-27T14:07:48;0.83;;;0.73;;
30147;SDS011;16960;49.404;8.248;2023-02-27T14:10:21;0.90;;;0.60;;
30147;SDS011;16960;49.404;8.248;2023-02-27T14:12:51;2.00;;;0.70;;
30147;SDS011;16960;49.404;8.248;2023-02-27T14:24:22;1.00;;;0.50;;
30147;SDS011;16960;49.404;8.248;2023-02-27T14:26:53;0.70;;;0.60;;
30147;SDS011;16960;49.404;8.248;2023-02-27T14:29:22;2.20;;;0.70;;
30147;SDS011;16960;49.404;8.248;2023-02-27T14:31:55;1.20;;;0.80;;
30147;SDS011;16960;49.404;8.248;2023-02-27T14:34:25;0.87;;;0.50;;
30147;SDS011;16960;49.404;8.248;2023-02-27T14:36:53;1.37;;;0.80;;
30147;SDS011;16960;49.404;8.248;2023-02-27T14:39:25;0.90;;;0.53;;
30147;SDS011;16960;49.404;8.248;2023-02-27T14:42:00;1.47;;;0.80;;
30147;SDS011;16960;49.404;8.248;2023-02-27T14:44:47;0.70;;;0.60;;
30147;SDS011;16960;49.404;8.248;2023-02-27T14:47:17;0.63;;;0.50;;
30147;SDS011;16960;49.404;8.248;2023-02-27T14:49:45;1.27;;;0.60;;
30147;SDS011;16960;49.404;8.248;2023-02-27T14:52:16;0.80;;;0.67;;
30147;SDS011;16960;49.404;8.248;2023-02-27T14:54:45;1.10;;;0.90;;
30147;SDS011;16960;49.404;8.248;2023-02-27T14:57:15;3.90;;;0.60;;
30147;SDS011;16960;49.404;8.248;2023-02-27T14:59:45;0.60;;;0.60;;
30147;SDS011;16960;49.404;8.248;2023-02-27T15:02:17;1.33;;;0.50;;
30147;SDS011;16960;49.404;8.248;2023-02-27T15:04:48;0.90;;;0.70;;
30147;SDS011;16960;49.404;8.248;2023-02-27T15:07:20;1.67;;;0.70;;
30147;SDS011;16960;49.404;8.248;2023-02-27T15:09:50;0.80;;;0.50;;
30147;SDS011;16960;49.404;8.248;2023-02-27T15:12:22;1.10;;;0.60;;
30147;SDS011;16960;49.404;8.248;2023-02-27T15:14:51;0.93;;;0.60;;
30147;SDS011;16960;49.404;8.248;2023-02-27T15:17:23;2.50;;;0.60;;
30147;SDS011;16960;49.404;8.248;2023-02-27T15:19:52;1.07;;;0.80;;
30147;SDS011;16960;49.404;8.248;2023-02-27T15:22:22;1.03;;;0.50;;
30147;SDS011;16960;49.404;8.248;2023-02-27T15:24:55;1.17;;;0.90;;
30147;SDS011;16960;49.404;8.248;2023-02-27T15:27:25;0.87;;;0.70;;
30147;SDS011;16960;49.404;8.248;2023-02-27T15:29:54;1.80;;;0.70;;
30147;SDS011;16960;49.404;8.248;2023-02-27T15:32:25;1.57;;;0.60;;
30147;SDS011;16960;49.404;8.248;2023-02-27T15:34:54;1.83;;;0.50;;
30147;SDS011;16960;49.404;8.248;2023-02-27T15:37:22;0.80;;;0.60;;
30147;SDS011;16960;49.404;8.248;2023-02-27T15:39:52;0.90;;;0.60;;
30147;SDS011;16960;49.404;8.248;2023-02-27T15:42:20;1.00;;;0.67;;
30147;SDS011;16960;49.404;8.248;2023-02-27T15:44:52;0.70;;;0.63;;
30147;SDS011;16960;49.404;8.248;2023-02-27T15:47:21;1.63;;;0.80;;
30147;SDS011;16960;49.404;8.248;2023-02-27T15:49:53;0.50;;;0.40;;